Menzel Bourguiba, Tunisia
Current Conditions -  °F | °C
As of 1:00 PM on Friday 31 Oct 2014 (Local Time) from DTTB Reporting Station
Broken Clouds Broken Clouds  
Wind Chill: 72°   Ceiling: 2000
Heat Index: 72°   Visibility: 6mi
Dew Point: 57°   Wind: 15mph
Humidity: 60%   Direction: 360°N
Pressure: 30.18"   Gusts: NA
Location:  37.16°N, 9.79°E
Report Text: DTTB 311200Z 36013KT 290V080 9999 BKN020TCU SCT030 22/14 Q1022
Loading
Personal Weather Stations






























Interactive Weather Map
Tropical Storm Tracking
New forecast layout! Learn more

10-Day Weather Forecast

Advertisements
Track Severe Weather on mobile